createdAt,value
2022-12-28T00:01:24.341Z,5.45
2022-12-28T00:03:51.640Z,5.48
2022-12-28T00:06:19.106Z,5.48
2022-12-28T00:08:45.727Z,5.42
2022-12-28T00:11:20.539Z,5.51
2022-12-28T00:13:54.724Z,5.47
2022-12-28T00:16:26.036Z,5.47
2022-12-28T00:18:53.447Z,5.54
2022-12-28T00:21:19.816Z,5.50
2022-12-28T00:23:49.216Z,5.52
2022-12-28T00:26:15.605Z,5.55
2022-12-28T00:28:42.067Z,5.51
2022-12-28T00:31:08.518Z,5.52
2022-12-28T00:33:35.005Z,5.56
2022-12-28T00:36:01.843Z,5.63
2022-12-28T00:38:31.451Z,5.71
2022-12-28T00:40:58.653Z,5.71
2022-12-28T00:43:25.241Z,5.73
2022-12-28T00:45:51.890Z,5.71
2022-12-28T00:48:18.328Z,5.74
2022-12-28T00:50:45.024Z,5.85
2022-12-28T00:53:12.153Z,5.88
2022-12-28T00:55:38.930Z,5.87
2022-12-28T00:58:06.338Z,5.86
2022-12-28T01:00:33.654Z,5.74
2022-12-28T01:03:00.404Z,5.75
2022-12-28T01:05:27.097Z,5.73
2022-12-28T01:07:53.500Z,5.64
2022-12-28T01:10:19.878Z,5.59
2022-12-28T01:12:46.249Z,5.62
2022-12-28T01:15:12.944Z,5.55
2022-12-28T01:17:39.684Z,5.51
2022-12-28T01:20:07.389Z,5.49
2022-12-28T01:22:33.818Z,5.48
2022-12-28T01:25:00.198Z,5.57
2022-12-28T01:27:26.591Z,5.63
2022-12-28T01:29:53.022Z,5.60
2022-12-28T01:32:19.395Z,5.61
2022-12-28T01:34:45.773Z,5.75
2022-12-28T01:37:12.137Z,5.75
2022-12-28T01:39:38.553Z,5.75
2022-12-28T01:42:05.013Z,5.76
2022-12-28T01:44:42.615Z,5.79
2022-12-28T01:47:17.320Z,5.69
2022-12-28T01:49:57.811Z,5.73
2022-12-28T01:52:33.197Z,5.70
2022-12-28T01:55:11.529Z,5.70
2022-12-28T01:57:48.182Z,5.75
2022-12-28T02:00:15.976Z,5.82
2022-12-28T02:02:46.809Z,5.84
2022-12-28T02:05:13.844Z,5.88
2022-12-28T02:07:43.461Z,5.86
2022-12-28T02:10:41.315Z,5.91
2022-12-28T02:12:57.618Z,6.02
2022-12-28T02:15:24.072Z,5.93
2022-12-28T02:17:50.564Z,6.00
2022-12-28T02:20:18.023Z,6.05
2022-12-28T02:23:08.809Z,5.98
2022-12-28T02:25:45.074Z,6.08
2022-12-28T02:28:40.455Z,6.05
2022-12-28T02:31:11.991Z,6.06
2022-12-28T02:33:50.684Z,6.15
2022-12-28T02:36:20.814Z,6.14
2022-12-28T02:38:52.010Z,6.08
2022-12-28T02:41:24.276Z,6.06
2022-12-28T02:43:50.642Z,6.18
2022-12-28T02:46:42.904Z,6.15
2022-12-28T02:49:37.366Z,6.04
2022-12-28T02:52:42.462Z,5.97
2022-12-28T02:55:40.898Z,5.96
2022-12-28T02:58:28.778Z,6.00
2022-12-28T03:01:10.482Z,6.08
2022-12-28T03:03:47.352Z,6.09
2022-12-28T03:06:41.952Z,6.14
2022-12-28T03:09:18.650Z,6.15
2022-12-28T03:11:54.517Z,6.16
2022-12-28T03:14:28.478Z,6.20
2022-12-28T03:17:17.185Z,6.27
2022-12-28T03:20:07.642Z,6.23
2022-12-28T03:22:54.138Z,6.29
2022-12-28T03:25:41.288Z,6.33
2022-12-28T03:28:28.015Z,6.40
2022-12-28T03:31:04.949Z,6.32
2022-12-28T03:33:32.135Z,6.32
2022-12-28T03:35:58.425Z,6.26
2022-12-28T03:38:29.456Z,6.21
2022-12-28T03:41:05.640Z,6.32
2022-12-28T03:43:42.503Z,6.32
2022-12-28T03:46:08.888Z,6.26
2022-12-28T03:48:37.439Z,6.32
2022-12-28T03:51:04.260Z,6.29
2022-12-28T03:53:39.145Z,6.22
2022-12-28T03:56:07.774Z,6.25
2022-12-28T03:58:34.192Z,6.29
2022-12-28T04:01:00.591Z,6.23
2022-12-28T04:03:27.016Z,6.20
2022-12-28T04:05:55.386Z,6.25
2022-12-28T04:08:21.795Z,6.28
2022-12-28T04:10:48.194Z,6.16
2022-12-28T04:13:14.606Z,6.11
2022-12-28T04:15:42.042Z,6.09
2022-12-28T04:18:08.432Z,6.18
2022-12-28T04:20:35.007Z,6.15
2022-12-28T04:23:01.399Z,6.17
2022-12-28T04:25:27.830Z,6.17
2022-12-28T04:27:54.198Z,6.15
2022-12-28T04:30:20.599Z,6.17
2022-12-28T04:32:46.975Z,6.20
2022-12-28T04:35:13.352Z,6.17
2022-12-28T04:37:39.723Z,6.20
2022-12-28T04:40:07.808Z,6.29
2022-12-28T04:42:34.214Z,6.29
2022-12-28T04:45:00.614Z,6.32
2022-12-28T04:47:26.998Z,6.34
2022-12-28T04:49:53.457Z,6.35
2022-12-28T04:52:22.188Z,6.37
2022-12-28T04:54:48.792Z,6.41
2022-12-28T04:57:15.166Z,6.55
2022-12-28T04:59:41.538Z,6.50
2022-12-28T05:02:08.076Z,6.53
2022-12-28T05:04:34.540Z,6.53
2022-12-28T05:07:00.944Z,6.51
2022-12-28T05:09:27.336Z,6.46
2022-12-28T05:11:53.909Z,6.42
2022-12-28T05:14:20.307Z,6.31
2022-12-28T05:16:50.657Z,6.29
2022-12-28T05:19:17.050Z,6.26
2022-12-28T05:21:44.662Z,6.21
2022-12-28T05:24:11.046Z,6.15
2022-12-28T05:26:37.441Z,6.13
2022-12-28T05:29:04.207Z,6.14
2022-12-28T05:31:30.797Z,6.18
2022-12-28T05:33:57.298Z,6.14
2022-12-28T05:36:25.887Z,6.15
2022-12-28T05:38:53.450Z,6.21
2022-12-28T05:41:22.409Z,6.17
2022-12-28T05:43:49.045Z,6.15
2022-12-28T05:46:26.070Z,6.13
2022-12-28T05:48:55.106Z,6.17
2022-12-28T05:51:23.117Z,6.16
2022-12-28T05:53:49.552Z,6.16
2022-12-28T05:56:19.195Z,6.11
2022-12-28T05:58:47.238Z,6.18
2022-12-28T06:01:18.376Z,6.15
2022-12-28T06:03:45.489Z,6.15
2022-12-28T06:06:17.453Z,6.20
2022-12-28T06:08:44.723Z,6.20
2022-12-28T06:11:13.411Z,6.22
2022-12-28T06:13:39.816Z,6.13
2022-12-28T06:16:11.350Z,6.16
2022-12-28T06:18:37.912Z,6.18
2022-12-28T06:21:06.337Z,6.16
2022-12-28T06:23:32.901Z,6.18
2022-12-28T06:26:00.163Z,6.24
2022-12-28T06:28:26.836Z,6.23
2022-12-28T06:30:53.230Z,6.24
2022-12-28T06:33:19.633Z,6.26
2022-12-28T06:35:46.028Z,6.20
2022-12-28T06:38:12.423Z,6.25
2022-12-28T06:41:11.660Z,6.23
2022-12-28T06:43:25.232Z,6.25
2022-12-28T06:45:56.517Z,6.25
2022-12-28T06:48:23.217Z,6.26
2022-12-28T06:51:07.533Z,6.28
2022-12-28T06:53:35.767Z,6.28
2022-12-28T06:56:16.287Z,6.32
2022-12-28T06:58:43.330Z,6.30
2022-12-28T07:01:19.246Z,6.30
2022-12-28T07:03:47.222Z,6.33
2022-12-28T07:06:15.937Z,6.33
2022-12-28T07:08:42.638Z,6.34
2022-12-28T07:11:17.179Z,6.28
2022-12-28T07:13:43.815Z,6.33
2022-12-28T07:16:16.132Z,6.33
2022-12-28T07:18:43.187Z,6.38
2022-12-28T07:21:30.484Z,6.42
2022-12-28T07:23:57.451Z,6.38
2022-12-28T07:26:26.514Z,6.50
2022-12-28T07:28:55.043Z,6.39
2022-12-28T07:31:26.649Z,6.50
2022-12-28T07:33:55.352Z,6.48
2022-12-28T07:36:23.131Z,6.46
2022-12-28T07:38:49.726Z,6.44
2022-12-28T07:41:18.712Z,6.51
2022-12-28T07:43:45.435Z,6.44
2022-12-28T07:46:14.640Z,6.49
2022-12-28T07:48:42.022Z,6.54
2022-12-28T07:51:24.444Z,6.53
2022-12-28T07:53:51.578Z,6.53
2022-12-28T07:56:18.637Z,6.58
2022-12-28T07:58:54.720Z,6.55
2022-12-28T08:01:23.835Z,6.63
2022-12-28T08:03:54.208Z,6.55
2022-12-28T08:06:22.975Z,6.63
2022-12-28T08:08:52.017Z,6.62
2022-12-28T08:11:21.560Z,6.63
2022-12-28T08:13:49.555Z,6.62
2022-12-28T08:16:20.264Z,6.71
2022-12-28T08:18:47.758Z,6.70
2022-12-28T08:21:19.758Z,6.72
2022-12-28T08:23:46.825Z,6.75
2022-12-28T08:26:21.679Z,6.74
2022-12-28T08:28:50.235Z,6.80
2022-12-28T08:31:22.209Z,6.80
2022-12-28T08:33:48.858Z,6.77
2022-12-28T08:36:15.491Z,6.80
2022-12-28T08:38:43.318Z,6.78
2022-12-28T08:41:13.648Z,6.84
2022-12-28T08:43:40.492Z,6.78
2022-12-28T08:46:11.460Z,6.82
2022-12-28T08:48:38.358Z,6.83
2022-12-28T08:51:07.360Z,6.89
2022-12-28T08:53:34.616Z,6.95
2022-12-28T08:56:13.030Z,6.85
2022-12-28T08:58:41.010Z,6.89
2022-12-28T09:01:18.785Z,6.91
2022-12-28T09:03:47.101Z,6.87
2022-12-28T09:06:16.080Z,6.89
2022-12-28T09:08:42.783Z,6.92
2022-12-28T09:11:14.179Z,6.95
2022-12-28T09:13:40.987Z,7.00
2022-12-28T09:16:12.447Z,7.01
2022-12-28T09:18:39.935Z,7.02
2022-12-28T09:21:07.070Z,7.09
2022-12-28T09:23:33.579Z,7.08
2022-12-28T09:26:11.284Z,7.16
2022-12-28T09:28:38.016Z,7.14
2022-12-28T09:31:05.900Z,7.16
2022-12-28T09:34:23.272Z,7.14
2022-12-28T09:36:42.903Z,7.20
2022-12-28T09:39:18.072Z,7.17
2022-12-28T09:42:02.834Z,7.10
2022-12-28T09:45:00.452Z,7.13
2022-12-28T09:47:35.827Z,7.24
2022-12-28T09:50:16.308Z,7.17
2022-12-28T09:53:05.808Z,7.20
2022-12-28T09:55:38.135Z,7.22
2022-12-28T09:58:06.294Z,7.26
2022-12-28T10:00:39.548Z,7.23
2022-12-28T10:03:14.752Z,7.29
2022-12-28T10:05:41.193Z,7.30
2022-12-28T10:08:10.669Z,7.29
2022-12-28T10:10:37.066Z,7.34
2022-12-28T10:16:20.413Z,7.38
2022-12-28T10:18:47.791Z,7.44
2022-12-28T10:21:16.208Z,7.46
2022-12-28T10:24:04.694Z,7.47
2022-12-28T10:26:29.720Z,7.51
2022-12-28T10:29:00.304Z,7.58
2022-12-28T10:31:34.980Z,7.70
2022-12-28T10:34:01.925Z,7.74
2022-12-28T10:36:33.551Z,7.84
2022-12-28T10:39:00.698Z,7.91
2022-12-28T10:41:37.049Z,7.92
2022-12-28T10:47:17.116Z,7.85
2022-12-28T10:50:02.773Z,8.01
2022-12-28T10:52:35.449Z,8.11
2022-12-28T10:55:08.251Z,8.11
2022-12-28T10:57:37.930Z,8.19
2022-12-28T11:00:14.408Z,8.29
2022-12-28T11:02:41.026Z,8.09
2022-12-28T11:05:21.581Z,8.21
2022-12-28T11:07:48.231Z,8.30
2022-12-28T11:10:27.561Z,8.22
2022-12-28T11:12:55.909Z,8.31
2022-12-28T11:15:25.640Z,8.34
2022-12-28T11:17:55.493Z,8.21
2022-12-28T11:20:29.728Z,8.30
2022-12-28T11:22:56.220Z,8.36
2022-12-28T11:25:28.884Z,8.38
2022-12-28T11:27:55.669Z,8.39
2022-12-28T11:30:22.112Z,8.38
2022-12-28T11:32:57.160Z,8.45
2022-12-28T11:35:27.433Z,8.55
2022-12-28T11:37:56.984Z,8.44
2022-12-28T11:40:42.275Z,8.50
2022-12-28T11:43:28.638Z,8.27
2022-12-28T11:45:59.224Z,8.49
2022-12-28T11:48:43.597Z,8.52
2022-12-28T11:51:22.153Z,8.45
2022-12-28T11:53:58.331Z,8.49
2022-12-28T11:56:43.457Z,8.44
2022-12-28T11:59:25.021Z,8.42
2022-12-28T12:01:53.542Z,8.31
2022-12-28T12:04:33.426Z,8.23
2022-12-28T12:07:01.313Z,8.19
2022-12-28T12:09:32.591Z,8.21
2022-12-28T12:12:00.917Z,8.22
2022-12-28T12:14:32.113Z,8.25
2022-12-28T12:17:13.948Z,8.15
2022-12-28T12:19:43.055Z,8.25
2022-12-28T12:22:09.337Z,8.18
2022-12-28T12:24:56.420Z,8.19
2022-12-28T12:27:38.736Z,8.08
2022-12-28T12:30:07.884Z,8.13
2022-12-28T12:32:46.451Z,8.10
2022-12-28T12:35:17.893Z,8.03
2022-12-28T12:37:50.213Z,8.01
2022-12-28T12:40:16.883Z,7.95
2022-12-28T12:43:04.445Z,8.04
2022-12-28T12:45:36.322Z,8.10
2022-12-28T12:48:17.766Z,8.19
2022-12-28T12:50:57.995Z,8.22
2022-12-28T12:53:59.326Z,8.28
2022-12-28T12:56:49.667Z,8.26
2022-12-28T12:59:31.222Z,8.29
2022-12-28T13:02:03.734Z,8.30
2022-12-28T13:04:33.514Z,8.34
2022-12-28T13:07:03.388Z,8.39
2022-12-28T13:09:31.060Z,8.32
2022-12-28T13:11:58.244Z,8.28
2022-12-28T13:14:24.889Z,8.38
2022-12-28T13:16:56.353Z,8.38
2022-12-28T13:19:28.046Z,8.35
2022-12-28T13:21:55.465Z,8.50
2022-12-28T13:24:34.261Z,8.36
2022-12-28T13:27:01.003Z,8.44
2022-12-28T13:29:31.835Z,8.39
2022-12-28T13:31:58.289Z,8.43
2022-12-28T13:34:30.303Z,8.41
2022-12-28T13:36:59.130Z,8.42
2022-12-28T13:39:38.320Z,8.40
2022-12-28T13:42:18.098Z,8.38
2022-12-28T13:44:57.229Z,8.32
2022-12-28T13:47:59.285Z,8.39
2022-12-28T13:50:30.359Z,8.45
2022-12-28T13:52:59.847Z,8.48
2022-12-28T13:55:34.538Z,8.44
2022-12-28T13:58:08.255Z,8.51
2022-12-28T14:00:36.572Z,8.55
2022-12-28T14:03:07.863Z,8.58
2022-12-28T14:05:34.319Z,8.35
2022-12-28T14:08:01.007Z,8.46
2022-12-28T14:10:27.921Z,8.48
2022-12-28T14:12:55.007Z,8.52
2022-12-28T14:15:21.791Z,8.55
2022-12-28T14:17:49.492Z,8.52
2022-12-28T14:20:16.069Z,8.52
2022-12-28T14:22:42.675Z,8.53
2022-12-28T14:25:11.640Z,8.57
2022-12-28T14:28:07.882Z,8.58
2022-12-28T14:30:39.626Z,8.54
2022-12-28T14:33:20.856Z,8.54
2022-12-28T14:35:54.138Z,8.55
2022-12-28T14:38:22.837Z,8.59
2022-12-28T14:40:54.501Z,8.56
2022-12-28T14:43:32.559Z,8.55
2022-12-28T14:46:16.065Z,8.57
2022-12-28T14:48:44.946Z,8.52
2022-12-28T14:51:11.227Z,8.54
2022-12-28T14:53:37.677Z,8.59
2022-12-28T14:56:13.521Z,8.58
2022-12-28T14:58:40.333Z,8.54
2022-12-28T15:01:09.467Z,8.57
2022-12-28T15:03:55.136Z,8.62
2022-12-28T15:06:23.074Z,8.62
2022-12-28T15:08:50.734Z,8.70
2022-12-28T15:11:22.302Z,8.59
2022-12-28T15:13:49.196Z,8.77
2022-12-28T15:16:17.807Z,8.78
2022-12-28T15:18:47.160Z,8.77
2022-12-28T15:21:17.287Z,8.83
2022-12-28T15:23:44.627Z,8.80
2022-12-28T15:26:12.533Z,8.66
2022-12-28T15:28:39.490Z,8.59
2022-12-28T15:31:11.728Z,8.64
2022-12-28T15:33:38.034Z,8.63
2022-12-28T15:36:16.989Z,8.54
2022-12-28T15:38:44.786Z,8.62
2022-12-28T15:41:29.566Z,8.64
2022-12-28T15:43:55.939Z,8.64
2022-12-28T15:46:22.384Z,8.83
2022-12-28T15:48:48.766Z,8.81
2022-12-28T15:51:15.545Z,8.86
2022-12-28T15:53:41.929Z,8.85
2022-12-28T15:56:20.111Z,8.86
2022-12-28T15:58:46.592Z,8.77
2022-12-28T16:01:13.118Z,8.85
2022-12-28T16:03:39.595Z,8.88
2022-12-28T16:06:06.353Z,8.93
2022-12-28T16:08:32.718Z,8.89
2022-12-28T16:11:09.080Z,8.97
2022-12-28T16:13:35.452Z,9.04
2022-12-28T16:16:10.070Z,8.98
2022-12-28T16:18:36.503Z,8.95
2022-12-28T16:21:04.736Z,8.98
2022-12-28T16:23:41.396Z,9.02
2022-12-28T16:26:08.911Z,9.01
2022-12-28T16:28:35.686Z,8.94
2022-12-28T16:31:02.569Z,9.03
2022-12-28T16:33:29.424Z,8.91
2022-12-28T16:35:59.546Z,9.00
2022-12-28T16:38:28.518Z,8.94
2022-12-28T16:40:56.536Z,9.03
2022-12-28T16:43:23.330Z,8.98
2022-12-28T16:45:49.768Z,9.02
2022-12-28T16:48:16.389Z,9.08
2022-12-28T16:50:42.754Z,9.08
2022-12-28T16:53:09.168Z,9.05
2022-12-28T16:55:41.072Z,8.94
2022-12-28T16:58:08.338Z,8.98
2022-12-28T17:00:35.014Z,9.11
2022-12-28T17:03:01.519Z,9.11
2022-12-28T17:05:33.867Z,9.14
2022-12-28T17:08:00.167Z,9.17
2022-12-28T17:10:26.656Z,9.13
2022-12-28T17:12:53.145Z,9.19
2022-12-28T17:15:19.559Z,9.28
2022-12-28T17:17:45.985Z,9.25
2022-12-28T17:20:12.684Z,9.29
2022-12-28T17:22:39.249Z,9.26
2022-12-28T17:25:06.288Z,9.25
2022-12-28T17:27:32.976Z,9.26
2022-12-28T17:29:59.419Z,9.27
2022-12-28T17:32:25.954Z,9.20
2022-12-28T17:34:52.500Z,9.19
2022-12-28T17:37:19.141Z,9.14
2022-12-28T17:39:45.572Z,9.00
2022-12-28T17:42:12.014Z,8.93
2022-12-28T17:44:38.492Z,8.97
2022-12-28T17:47:05.029Z,8.92
2022-12-28T17:49:31.402Z,8.78
2022-12-28T17:51:57.771Z,8.83
2022-12-28T17:54:24.153Z,8.81
2022-12-28T17:56:50.555Z,8.79
2022-12-28T17:59:17.199Z,8.71
2022-12-28T18:01:43.831Z,8.63
2022-12-28T18:04:11.938Z,8.62
2022-12-28T18:06:38.894Z,8.55
2022-12-28T18:09:05.326Z,8.49
2022-12-28T18:11:31.776Z,8.42
2022-12-28T18:13:59.085Z,8.39
2022-12-28T18:16:26.395Z,8.42
2022-12-28T18:18:52.979Z,8.33
2022-12-28T18:21:22.104Z,8.33
2022-12-28T18:23:51.145Z,8.35
2022-12-28T18:26:20.530Z,8.36
2022-12-28T18:28:46.922Z,8.34
2022-12-28T18:31:13.339Z,8.30
2022-12-28T18:33:39.791Z,8.40
2022-12-28T18:36:11.387Z,8.35
2022-12-28T18:38:44.259Z,8.42
2022-12-28T18:41:12.859Z,8.40
2022-12-28T18:43:39.507Z,8.34
2022-12-28T18:46:06.750Z,8.34
2022-12-28T18:48:35.525Z,8.49
2022-12-28T18:51:11.312Z,8.31
2022-12-28T18:53:38.446Z,8.29
2022-12-28T18:56:10.663Z,8.33
2022-12-28T18:58:37.735Z,8.21
2022-12-28T19:01:05.285Z,8.18
2022-12-28T19:03:32.130Z,8.21
2022-12-28T19:06:02.856Z,8.19
2022-12-28T19:08:33.460Z,8.20
2022-12-28T19:11:00.912Z,8.21
2022-12-28T19:13:28.376Z,8.21
2022-12-28T19:15:54.817Z,8.11
2022-12-28T19:18:21.242Z,8.09
2022-12-28T19:20:47.612Z,8.09
2022-12-28T19:23:14.155Z,8.11
2022-12-28T19:25:40.627Z,8.13
2022-12-28T19:28:07.497Z,8.13
2022-12-28T19:30:34.145Z,8.07
2022-12-28T19:33:00.518Z,8.09
2022-12-28T19:35:26.882Z,8.16
2022-12-28T19:37:53.248Z,8.08
2022-12-28T19:40:19.664Z,8.04
2022-12-28T19:42:46.123Z,8.13
2022-12-28T19:45:12.533Z,8.08
2022-12-28T19:47:39.009Z,8.14
2022-12-28T19:50:05.617Z,8.12
2022-12-28T19:52:32.996Z,8.13
2022-12-28T19:54:59.497Z,8.08
2022-12-28T19:57:25.867Z,8.08
2022-12-28T19:59:52.260Z,8.12
2022-12-28T20:02:18.918Z,8.18
2022-12-28T20:04:45.470Z,8.13
2022-12-28T20:07:11.830Z,8.11
2022-12-28T20:09:38.494Z,8.20
2022-12-28T20:12:05.089Z,8.13
2022-12-28T20:14:31.533Z,8.18
2022-12-28T20:16:57.906Z,8.19
2022-12-28T20:19:24.321Z,8.16
2022-12-28T20:21:50.786Z,8.17
2022-12-28T20:24:19.811Z,8.13
2022-12-28T20:26:46.207Z,8.11
2022-12-28T20:29:16.128Z,8.17
2022-12-28T20:31:42.797Z,8.18
2022-12-28T20:34:09.245Z,8.17
2022-12-28T20:36:35.691Z,8.20
2022-12-28T20:39:02.345Z,8.24
2022-12-28T20:41:49.135Z,8.30
2022-12-28T20:44:21.788Z,8.42
2022-12-28T20:46:48.293Z,8.54
2022-12-28T20:49:14.769Z,8.56
2022-12-28T20:51:42.237Z,8.54
2022-12-28T20:54:10.291Z,8.55
2022-12-28T20:56:38.443Z,8.59
2022-12-28T20:59:05.706Z,8.67
2022-12-28T21:01:32.259Z,8.67
2022-12-28T21:03:58.847Z,8.74
2022-12-28T21:06:25.335Z,8.78
2022-12-28T21:08:51.699Z,8.85
2022-12-28T21:11:18.666Z,8.88
2022-12-28T21:13:45.292Z,8.90
2022-12-28T21:16:12.765Z,8.88
2022-12-28T21:18:39.159Z,8.92
2022-12-28T21:21:05.847Z,8.98
2022-12-28T21:23:32.541Z,9.04
2022-12-28T21:26:07.327Z,9.02
2022-12-28T21:28:34.405Z,9.07
2022-12-28T21:31:03.537Z,8.98
2022-12-28T21:33:29.994Z,9.08
2022-12-28T21:36:02.158Z,9.11
2022-12-28T21:38:29.017Z,9.03
2022-12-28T21:41:07.006Z,9.03
2022-12-28T21:43:33.589Z,9.01
2022-12-28T21:46:05.642Z,9.00
2022-12-28T21:48:33.504Z,9.06
2022-12-28T21:51:06.872Z,8.94
2022-12-28T21:53:33.353Z,8.96
2022-12-28T21:55:59.821Z,8.97
2022-12-28T21:58:26.198Z,8.94
2022-12-28T22:01:15.997Z,8.98
2022-12-28T22:04:01.266Z,8.98
2022-12-28T22:06:27.659Z,9.05
2022-12-28T22:09:12.321Z,9.09
2022-12-28T22:11:57.372Z,9.17
2022-12-28T22:14:23.850Z,9.05
2022-12-28T22:16:50.334Z,9.00
2022-12-28T22:19:16.805Z,8.96
2022-12-28T22:21:43.999Z,8.94
2022-12-28T22:24:10.444Z,9.08
2022-12-28T22:26:36.855Z,9.02
2022-12-28T22:29:03.632Z,9.09
2022-12-28T22:31:30.242Z,9.06
2022-12-28T22:33:59.383Z,9.13
2022-12-28T22:36:29.747Z,9.17
2022-12-28T22:38:56.206Z,9.21
2022-12-28T22:41:22.664Z,9.21
2022-12-28T22:43:53.291Z,9.21
2022-12-28T22:46:19.952Z,9.19
2022-12-28T22:48:48.229Z,9.23
2022-12-28T22:51:16.040Z,9.10
2022-12-28T22:53:42.895Z,9.02
2022-12-28T22:56:19.522Z,9.04
2022-12-28T22:58:47.151Z,9.03
2022-12-28T23:01:16.038Z,9.11
2022-12-28T23:03:44.269Z,9.12
2022-12-28T23:06:12.478Z,9.12
2022-12-28T23:08:38.855Z,9.12
2022-12-28T23:11:27.596Z,9.12
2022-12-28T23:13:54.046Z,9.12
2022-12-28T23:16:20.489Z,9.13
2022-12-28T23:19:05.598Z,9.15
2022-12-28T23:21:50.273Z,9.17
2022-12-28T23:24:35.497Z,9.24
2022-12-28T23:27:20.071Z,9.24
2022-12-28T23:29:46.479Z,9.28
2022-12-28T23:32:13.009Z,9.34
2022-12-28T23:34:39.413Z,9.38
2022-12-28T23:37:05.908Z,9.41
2022-12-28T23:39:32.335Z,9.42
2022-12-28T23:41:58.743Z,9.53
2022-12-28T23:44:26.437Z,9.56
2022-12-28T23:46:58.561Z,9.60
2022-12-28T23:49:25.644Z,9.62
2022-12-28T23:51:52.127Z,9.62
2022-12-28T23:54:19.606Z,9.78
2022-12-28T23:56:46.572Z,9.71
2022-12-28T23:59:12.968Z,9.70
